Time;durP1;ratioP1;P1;durP2;ratioP2;P2;SDS_P1;SDS_P2;PMS_P1;PMS_P2;Temp;Humidity;BMP_temperature;BMP_pressure;BME280_temperature;BME280_humidity;BME280_pressure;Samples;Min_cycle;Max_cycle;Signal;HPM_P1;HPM_P2
2023/12/05 00:01:20;;;;;;;0.00;0.00;;;20.90;48.60;;;;;;5030471;28;20216;-47
2023/12/05 00:03:51;;;;;;;0.00;0.00;;;20.90;48.60;;;;;;5030421;28;20216;-49
2023/12/05 00:06:21;;;;;;;0.10;0.10;;;20.90;48.60;;;;;;5030218;28;20193;-48
2023/12/05 00:08:52;;;;;;;0.00;0.00;;;20.90;48.60;;;;;;5030878;28;20226;-45
2023/12/05 00:11:25;;;;;;;0.00;0.00;;;20.90;48.60;;;;;;5026667;28;20216;-48
2023/12/05 00:13:55;;;;;;;0.00;0.00;;;21.00;48.60;;;;;;5031475;28;20196;-46
2023/12/05 00:16:27;;;;;;;0.08;0.08;;;21.00;48.60;;;;;;5030395;28;20539;-46
2023/12/05 00:18:57;;;;;;;0.10;0.10;;;21.00;48.50;;;;;;5030354;28;20202;-49
2023/12/05 00:21:28;;;;;;;0.00;0.00;;;21.00;48.50;;;;;;5030840;28;20578;-48
2023/12/05 00:23:59;;;;;;;0.00;0.00;;;21.00;48.50;;;;;;5030004;28;20224;-46
2023/12/05 00:26:32;;;;;;;0.10;0.10;;;21.00;48.60;;;;;;5031032;28;20532;-46
2023/12/05 00:29:03;;;;;;;0.00;0.00;;;21.00;49.50;;;;;;5031452;28;20196;-48
2023/12/05 00:31:33;;;;;;;0.00;0.00;;;21.00;49.80;;;;;;5034297;28;20219;-49
2023/12/05 00:34:04;;;;;;;0.00;0.00;;;21.10;49.80;;;;;;5033711;28;20196;-46
2023/12/05 00:36:35;;;;;;;0.10;0.10;;;21.10;49.70;;;;;;5033085;28;20196;-46
2023/12/05 00:39:06;;;;;;;0.10;0.10;;;21.10;49.60;;;;;;5033798;28;20199;-48
2023/12/05 00:41:39;;;;;;;0.00;0.00;;;21.20;49.60;;;;;;5034370;28;20306;-49
2023/12/05 00:44:09;;;;;;;0.00;0.00;;;21.10;49.40;;;;;;5033824;28;20224;-49
2023/12/05 00:46:40;;;;;;;0.10;0.10;;;21.20;49.40;;;;;;5032302;28;20201;-48
2023/12/05 00:49:11;;;;;;;0.00;0.00;;;21.20;49.30;;;;;;5034026;28;20204;-50
2023/12/05 00:51:41;;;;;;;0.00;0.00;;;21.20;49.30;;;;;;5033459;28;20228;-49
2023/12/05 00:54:12;;;;;;;0.00;0.00;;;21.20;49.20;;;;;;5033768;28;20207;-45
2023/12/05 00:56:45;;;;;;;0.00;0.00;;;21.20;49.20;;;;;;5032944;28;20200;-48
2023/12/05 00:59:15;;;;;;;0.00;0.00;;;21.20;49.10;;;;;;5033981;28;20211;-47
2023/12/05 01:01:46;;;;;;;0.10;0.10;;;21.30;49.20;;;;;;5032995;28;20582;-47
2023/12/05 01:04:17;;;;;;;0.00;0.00;;;21.30;49.10;;;;;;5033552;28;20224;-48
2023/12/05 01:06:48;;;;;;;0.00;0.00;;;21.30;49.10;;;;;;5033451;28;20202;-47
2023/12/05 01:09:19;;;;;;;0.00;0.00;;;21.30;49.20;;;;;;5033410;28;20271;-48
2023/12/05 01:11:51;;;;;;;0.00;0.00;;;21.30;49.10;;;;;;5033769;28;20223;-49
2023/12/05 01:14:22;;;;;;;0.00;0.00;;;21.30;49.10;;;;;;5033265;28;20196;-49
2023/12/05 01:16:52;;;;;;;0.00;0.00;;;21.30;49.00;;;;;;5032892;28;20192;-48
2023/12/05 01:19:23;;;;;;;0.00;0.00;;;21.30;48.90;;;;;;5033309;28;20207;-50
2023/12/05 01:21:54;;;;;;;0.00;0.00;;;21.30;49.00;;;;;;5032999;28;20220;-50
2023/12/05 01:24:25;;;;;;;0.00;0.00;;;21.30;48.90;;;;;;5030878;28;20231;-47
2023/12/05 01:26:58;;;;;;;0.00;0.00;;;21.20;48.90;;;;;;5033104;28;20199;-47
2023/12/05 01:29:28;;;;;;;0.10;0.10;;;21.20;48.90;;;;;;5032278;28;20200;-48
2023/12/05 01:31:59;;;;;;;0.00;0.00;;;21.20;49.00;;;;;;5032896;28;20687;-49
2023/12/05 01:34:30;;;;;;;0.00;0.00;;;21.20;49.00;;;;;;5032577;28;20200;-49
2023/12/05 01:37:00;;;;;;;0.00;0.00;;;21.20;49.00;;;;;;5032746;28;20568;-46
2023/12/05 01:39:31;;;;;;;0.00;0.00;;;21.20;49.30;;;;;;5029362;28;20188;-47
2023/12/05 01:42:04;;;;;;;0.00;0.00;;;21.30;49.60;;;;;;5020751;28;20301;-47
2023/12/05 01:44:34;;;;;;;0.10;0.10;;;21.30;49.30;;;;;;5032992;28;20223;-48
2023/12/05 01:47:05;;;;;;;0.00;0.00;;;21.30;49.20;;;;;;5032936;28;20199;-46
2023/12/05 01:49:36;;;;;;;0.00;0.00;;;21.30;49.10;;;;;;5029041;28;20539;-48
2023/12/05 01:52:08;;;;;;;0.00;0.00;;;21.30;49.10;;;;;;5032711;28;20584;-46
2023/12/05 01:54:39;;;;;;;0.00;0.00;;;21.30;49.20;;;;;;5031596;28;20207;-49
2023/12/05 01:57:12;;;;;;;0.00;0.00;;;21.30;49.10;;;;;;5032773;28;20246;-48
2023/12/05 01:59:43;;;;;;;0.03;0.03;;;21.30;49.10;;;;;;5032504;28;20246;-49
2023/12/05 02:02:15;;;;;;;0.00;0.00;;;21.30;49.10;;;;;;5028564;28;20208;-46
2023/12/05 02:04:47;;;;;;;0.00;0.00;;;21.30;49.00;;;;;;5032227;28;20228;-48
2023/12/05 02:07:18;;;;;;;0.00;0.00;;;21.30;49.00;;;;;;5032195;28;20743;-48
2023/12/05 02:09:50;;;;;;;0.00;0.00;;;21.30;49.00;;;;;;5032025;28;20204;-48
2023/12/05 02:12:22;;;;;;;0.10;0.10;;;21.40;49.10;;;;;;5031789;28;20227;-46
2023/12/05 02:14:53;;;;;;;0.10;0.10;;;21.40;49.10;;;;;;5032892;28;20605;-49
2023/12/05 02:17:29;;;;;;;0.10;0.10;;;21.40;49.00;;;;;;5031840;28;20208;-49
2023/12/05 02:20:09;;;;;;;0.00;0.00;;;21.40;49.60;;;;;;5032205;28;20192;-46
2023/12/05 02:23:26;;;;;;;0.00;0.00;;;21.40;49.00;;;;;;5031425;28;20207;-51
2023/12/05 02:26:11;;;;;;;0.00;0.00;;;21.40;49.00;;;;;;5030887;28;20337;-48
2023/12/05 02:28:44;;;;;;;0.10;0.10;;;21.40;48.90;;;;;;5031397;28;20679;-48
2023/12/05 02:31:15;;;;;;;0.05;0.05;;;21.40;48.80;;;;;;5031418;28;20270;-49
2023/12/05 02:33:46;;;;;;;0.10;0.10;;;21.40;48.90;;;;;;5029109;28;20200;-47
2023/12/05 02:36:27;;;;;;;0.00;0.00;;;21.50;48.90;;;;;;5030798;28;20224;-48
2023/12/05 02:39:05;;;;;;;0.00;0.00;;;21.50;48.90;;;;;;5016936;28;20676;-47
2023/12/05 02:41:38;;;;;;;0.00;0.00;;;21.50;48.80;;;;;;5012536;28;20653;-52
2023/12/05 02:44:14;;;;;;;0.00;0.00;;;21.50;48.80;;;;;;5011096;28;20208;-47
2023/12/05 02:46:45;;;;;;;0.00;0.00;;;21.50;48.80;;;;;;5012361;28;20200;-47
2023/12/05 02:49:16;;;;;;;0.10;0.10;;;21.50;48.90;;;;;;5025739;28;20200;-44
2023/12/05 02:51:47;;;;;;;0.00;0.00;;;21.50;48.80;;;;;;5030673;28;20759;-44
2023/12/05 02:54:18;;;;;;;0.10;0.10;;;21.60;48.80;;;;;;5031300;28;20390;-45
2023/12/05 02:56:49;;;;;;;0.00;0.00;;;21.50;48.70;;;;;;5031080;28;20203;-44
2023/12/05 02:59:21;;;;;;;0.00;0.00;;;21.60;48.70;;;;;;5031891;28;20206;-44
2023/12/05 03:01:52;;;;;;;0.00;0.00;;;21.60;48.70;;;;;;5030519;28;20224;-46
2023/12/05 03:04:23;;;;;;;0.00;0.00;;;21.60;48.70;;;;;;5031583;28;20196;-45
2023/12/05 03:06:53;;;;;;;0.00;0.00;;;21.60;48.70;;;;;;5030546;28;20196;-44
2023/12/05 03:09:24;;;;;;;0.10;0.10;;;21.60;48.70;;;;;;5031111;28;20199;-45
2023/12/05 03:11:55;;;;;;;0.03;0.03;;;21.60;48.70;;;;;;5030587;28;20215;-50
2023/12/05 03:14:28;;;;;;;0.00;0.00;;;21.60;48.70;;;;;;5031021;28;20204;-44
2023/12/05 03:16:59;;;;;;;0.00;0.00;;;21.60;48.70;;;;;;5030124;28;20578;-46
2023/12/05 03:19:29;;;;;;;0.00;0.00;;;21.60;48.60;;;;;;5029870;28;20193;-46
2023/12/05 03:22:00;;;;;;;0.00;0.00;;;21.60;48.60;;;;;;5031521;28;20215;-47
2023/12/05 03:24:31;;;;;;;0.10;0.10;;;21.60;48.60;;;;;;5030576;28;20611;-47
2023/12/05 03:27:02;;;;;;;0.00;0.00;;;21.70;48.70;;;;;;5031435;28;20199;-48
2023/12/05 03:29:35;;;;;;;0.00;0.00;;;21.70;48.70;;;;;;5031055;28;20223;-46
2023/12/05 03:32:06;;;;;;;0.00;0.00;;;21.70;48.60;;;;;;5030654;28;20211;-45
2023/12/05 03:34:37;;;;;;;0.10;0.10;;;21.70;48.60;;;;;;5031291;28;20227;-47
2023/12/05 03:37:07;;;;;;;0.00;0.00;;;21.70;48.60;;;;;;5030825;28;20591;-47
2023/12/05 03:39:38;;;;;;;0.00;0.00;;;21.70;48.50;;;;;;5030850;28;20204;-46
2023/12/05 03:42:09;;;;;;;0.00;0.00;;;21.70;48.60;;;;;;5030387;28;20212;-47
2023/12/05 03:44:42;;;;;;;0.00;0.00;;;21.70;48.50;;;;;;5029015;28;20216;-46
2023/12/05 03:47:12;;;;;;;0.00;0.00;;;21.70;48.50;;;;;;5030862;28;20196;-48
2023/12/05 03:49:43;;;;;;;0.00;0.00;;;21.70;48.50;;;;;;5027673;28;20188;-48
2023/12/05 03:52:14;;;;;;;0.00;0.00;;;21.70;48.50;;;;;;5030237;28;20224;-44
2023/12/05 03:54:44;;;;;;;0.00;0.00;;;21.70;48.60;;;;;;5030065;28;20554;-44
2023/12/05 03:57:15;;;;;;;0.00;0.00;;;21.70;48.50;;;;;;5030045;28;20196;-46
2023/12/05 03:59:48;;;;;;;0.00;0.00;;;21.70;48.50;;;;;;5030619;28;20200;-46
2023/12/05 04:02:19;;;;;;;0.10;0.10;;;21.70;48.50;;;;;;5030818;28;20703;-48
2023/12/05 04:04:49;;;;;;;0.03;0.03;;;21.70;48.50;;;;;;5033608;28;20234;-48
2023/12/05 04:07:20;;;;;;;0.10;0.10;;;21.80;48.50;;;;;;5033628;28;20646;-46
2023/12/05 04:09:51;;;;;;;0.10;0.10;;;21.70;48.40;;;;;;5033732;28;20196;-46
2023/12/05 04:12:21;;;;;;;0.00;0.00;;;21.80;48.50;;;;;;5022744;28;20216;-47
2023/12/05 04:14:54;;;;;;;0.00;0.00;;;21.70;48.40;;;;;;5014838;28;20207;-48
2023/12/05 04:17:25;;;;;;;0.00;0.00;;;21.70;49.00;;;;;;5014389;28;20432;-49
2023/12/05 04:19:55;;;;;;;0.10;0.10;;;21.70;48.40;;;;;;5014816;28;20200;-48
2023/12/05 04:22:26;;;;;;;0.00;0.00;;;21.80;48.40;;;;;;5018929;28;20196;-50
2023/12/05 04:24:57;;;;;;;0.10;0.10;;;21.80;48.40;;;;;;5034275;28;20220;-50
2023/12/05 04:27:27;;;;;;;0.00;0.00;;;21.80;48.40;;;;;;5034019;28;20195;-48
2023/12/05 04:30:00;;;;;;;0.10;0.10;;;21.80;48.40;;;;;;5034567;28;20670;-49
2023/12/05 04:32:31;;;;;;;0.05;0.05;;;21.80;48.40;;;;;;5033530;28;20207;-47
2023/12/05 04:35:01;;;;;;;0.00;0.00;;;21.80;48.40;;;;;;5034171;28;20207;-46
2023/12/05 04:37:32;;;;;;;0.00;0.00;;;21.80;48.30;;;;;;5033347;28;20196;-48
2023/12/05 04:40:03;;;;;;;0.10;0.10;;;21.80;48.30;;;;;;5033775;28;20196;-49
2023/12/05 04:42:34;;;;;;;0.00;0.00;;;21.80;48.30;;;;;;5033639;28;20200;-48
2023/12/05 04:45:07;;;;;;;0.00;0.00;;;21.80;48.40;;;;;;5018227;28;20232;-45
2023/12/05 04:47:38;;;;;;;0.00;0.00;;;21.80;48.30;;;;;;5014483;28;20193;-47
2023/12/05 04:50:10;;;;;;;0.00;0.00;;;21.80;48.30;;;;;;5014294;28;20203;-48
2023/12/05 04:52:41;;;;;;;0.10;0.10;;;21.80;48.30;;;;;;5014205;28;20711;-49
2023/12/05 04:55:12;;;;;;;0.00;0.00;;;21.80;48.30;;;;;;5022884;28;20214;-48
2023/12/05 04:57:43;;;;;;;0.00;0.00;;;21.80;48.30;;;;;;5032996;28;20192;-46
2023/12/05 05:00:16;;;;;;;0.10;0.10;;;21.80;48.20;;;;;;5031316;28;20200;-46
2023/12/05 05:02:47;;;;;;;0.00;0.00;;;21.80;48.20;;;;;;5013729;28;20212;-49
2023/12/05 05:05:18;;;;;;;0.10;0.10;;;21.80;48.20;;;;;;5013131;28;20256;-50
2023/12/05 05:07:48;;;;;;;0.00;0.00;;;21.80;48.20;;;;;;5026875;28;20211;-48
2023/12/05 05:10:19;;;;;;;0.00;0.00;;;21.80;48.20;;;;;;5032389;28;20192;-47
2023/12/05 05:12:53;;;;;;;0.10;0.10;;;21.80;48.20;;;;;;5032248;28;20199;-47
2023/12/05 05:15:25;;;;;;;0.00;0.00;;;21.80;48.20;;;;;;5012613;28;20192;-50
2023/12/05 05:17:56;;;;;;;0.00;0.00;;;21.80;48.10;;;;;;5013838;28;20197;-51
2023/12/05 05:20:27;;;;;;;0.10;0.10;;;21.80;48.10;;;;;;5015030;28;20224;-48
2023/12/05 05:22:57;;;;;;;0.00;0.00;;;21.80;48.10;;;;;;5032060;28;20200;-49
2023/12/05 05:25:28;;;;;;;0.10;0.10;;;21.80;48.10;;;;;;5033001;28;20247;-49
2023/12/05 05:27:59;;;;;;;0.10;0.10;;;21.80;48.10;;;;;;5032562;28;20196;-47
2023/12/05 05:30:31;;;;;;;0.10;0.10;;;21.80;48.10;;;;;;5032757;28;20227;-47
2023/12/05 05:33:02;;;;;;;0.00;0.00;;;21.80;48.10;;;;;;5031776;28;20180;-47
2023/12/05 05:35:33;;;;;;;0.00;0.00;;;21.80;48.10;;;;;;5032124;28;20588;-49
2023/12/05 05:38:03;;;;;;;0.10;0.10;;;21.80;48.10;;;;;;5032002;28;20362;-47
2023/12/05 05:40:34;;;;;;;0.00;0.00;;;21.80;48.10;;;;;;5032092;28;20688;-47
2023/12/05 05:43:05;;;;;;;0.00;0.00;;;21.80;48.70;;;;;;5029214;28;20188;-48
2023/12/05 05:45:37;;;;;;;0.10;0.10;;;21.80;48.10;;;;;;5031470;28;20706;-49
2023/12/05 05:48:08;;;;;;;0.10;0.10;;;21.80;48.00;;;;;;5031170;28;20530;-46
2023/12/05 05:50:40;;;;;;;0.00;0.00;;;21.80;48.00;;;;;;5031722;28;20226;-50
2023/12/05 05:53:11;;;;;;;0.00;0.00;;;21.80;47.90;;;;;;5032485;28;20208;-46
2023/12/05 05:55:42;;;;;;;0.10;0.10;;;21.80;47.90;;;;;;5031712;28;20290;-46
2023/12/05 05:58:14;;;;;;;0.10;0.10;;;21.80;47.90;;;;;;5016116;28;20645;-47
2023/12/05 06:00:48;;;;;;;0.00;0.00;;;21.80;47.90;;;;;;5031982;28;20227;-46
2023/12/05 06:03:18;;;;;;;0.10;0.10;;;21.80;47.90;;;;;;5032985;28;20212;-48
2023/12/05 06:05:49;;;;;;;0.10;0.10;;;21.70;47.90;;;;;;5031604;28;20223;-50
2023/12/05 06:08:20;;;;;;;0.10;0.10;;;21.70;47.80;;;;;;5031709;28;20387;-48
2023/12/05 06:10:50;;;;;;;0.00;0.00;;;21.80;47.90;;;;;;5031997;28;20586;-47
2023/12/05 06:13:21;;;;;;;0.05;0.05;;;21.80;47.90;;;;;;5032152;28;20196;-50
2023/12/05 06:15:54;;;;;;;0.08;0.08;;;21.70;47.80;;;;;;5031302;28;20710;-46
2023/12/05 06:18:25;;;;;;;0.10;0.10;;;21.70;47.90;;;;;;5029553;28;20256;-49
2023/12/05 06:20:57;;;;;;;0.00;0.00;;;21.70;47.90;;;;;;5031013;28;20211;-50
2023/12/05 06:23:28;;;;;;;0.00;0.00;;;21.70;47.90;;;;;;5031269;28;20226;-46
2023/12/05 06:25:58;;;;;;;0.00;0.00;;;21.70;47.90;;;;;;5031844;28;20220;-47
2023/12/05 06:28:29;;;;;;;0.00;0.00;;;21.70;47.90;;;;;;5030999;28;20215;-48
2023/12/05 06:31:02;;;;;;;0.10;0.10;;;21.70;47.90;;;;;;5031072;28;20224;-49
2023/12/05 06:33:32;;;;;;;0.03;0.03;;;21.70;47.90;;;;;;5031313;28;20200;-48
2023/12/05 06:36:03;;;;;;;0.10;0.10;;;21.70;47.80;;;;;;5031694;28;20246;-46
2023/12/05 06:38:34;;;;;;;0.10;0.10;;;21.70;47.80;;;;;;5029906;28;20211;-46
2023/12/05 06:41:05;;;;;;;0.00;0.00;;;21.70;47.80;;;;;;5031690;28;20220;-43
2023/12/05 06:43:35;;;;;;;0.10;0.10;;;21.70;47.80;;;;;;5030936;28;20207;-50
2023/12/05 06:46:08;;;;;;;0.00;0.00;;;21.70;47.80;;;;;;5031404;28;20223;-50
2023/12/05 06:48:39;;;;;;;0.08;0.08;;;21.70;47.80;;;;;;5031505;28;20437;-50
2023/12/05 06:51:10;;;;;;;0.10;0.10;;;21.70;47.80;;;;;;5031157;28;20593;-48
2023/12/05 06:53:40;;;;;;;0.00;0.00;;;21.70;47.70;;;;;;5031549;28;20207;-45
2023/12/05 06:56:13;;;;;;;0.00;0.00;;;21.70;48.40;;;;;;5031506;28;20683;-48
2023/12/05 06:58:45;;;;;;;0.00;0.00;;;21.70;47.80;;;;;;5031140;28;20204;-46
2023/12/05 07:01:19;;;;;;;0.00;0.00;;;21.70;47.80;;;;;;5031164;28;20695;-49
2023/12/05 07:03:50;;;;;;;0.03;0.03;;;21.70;47.80;;;;;;5031437;28;20192;-50
2023/12/05 07:06:20;;;;;;;0.00;0.00;;;21.70;47.80;;;;;;5031033;28;20224;-48
2023/12/05 07:08:51;;;;;;;0.00;0.00;;;21.70;47.80;;;;;;5029629;28;20215;-48
2023/12/05 07:11:22;;;;;;;0.05;0.05;;;21.70;47.80;;;;;;5031157;28;20738;-49
2023/12/05 07:13:53;;;;;;;0.00;0.00;;;21.60;47.70;;;;;;5030871;28;20561;-46
2023/12/05 07:16:25;;;;;;;0.00;0.00;;;21.60;47.70;;;;;;5030584;28;20199;-45
2023/12/05 07:18:56;;;;;;;0.03;0.03;;;21.70;47.80;;;;;;5029680;28;20204;-48
2023/12/05 07:21:27;;;;;;;0.00;0.00;;;21.60;47.70;;;;;;5030923;28;20226;-48
2023/12/05 07:23:57;;;;;;;0.03;0.03;;;21.60;47.70;;;;;;5031224;28;20196;-48
2023/12/05 07:26:28;;;;;;;0.00;0.00;;;21.60;47.90;;;;;;5030614;28;20230;-48
2023/12/05 07:28:57;;;;;;;0.00;0.00;;;21.60;47.70;;;;;;5031169;28;20192;-48
2023/12/05 07:31:30;;;;;;;0.00;0.00;;;21.60;47.70;;;;;;5031155;28;20231;-49
2023/12/05 07:34:01;;;;;;;0.00;0.00;;;21.60;47.70;;;;;;5030518;28;20202;-46
2023/12/05 07:36:31;;;;;;;0.00;0.00;;;21.60;47.70;;;;;;5030942;28;20200;-43
2023/12/05 07:39:02;;;;;;;0.00;0.00;;;21.60;47.60;;;;;;5019843;28;20212;-48
2023/12/05 07:41:33;;;;;;;0.05;0.05;;;21.60;47.70;;;;;;5034519;28;20220;-46
2023/12/05 07:44:03;;;;;;;0.00;0.00;;;21.60;47.70;;;;;;5033204;28;20206;-44
2023/12/05 07:46:36;;;;;;;0.00;0.00;;;21.60;47.70;;;;;;5035020;28;20714;-47
2023/12/05 07:49:07;;;;;;;0.00;0.00;;;21.60;47.70;;;;;;5035274;28;20290;-48
2023/12/05 07:51:38;;;;;;;0.00;0.00;;;21.60;47.70;;;;;;5034911;28;20223;-47
2023/12/05 07:54:08;;;;;;;0.10;0.10;;;21.60;47.70;;;;;;5034650;28;20200;-47
2023/12/05 07:56:42;;;;;;;0.10;0.10;;;21.50;47.60;;;;;;5034522;28;20762;-45
2023/12/05 07:59:13;;;;;;;0.00;0.00;;;21.60;47.70;;;;;;5035147;28;20204;-46
2023/12/05 08:01:46;;;;;;;0.10;0.10;;;21.60;47.70;;;;;;5034852;28;20220;-43
2023/12/05 08:04:17;;;;;;;0.10;0.10;;;21.50;47.60;;;;;;5031585;28;20203;-45
2023/12/05 08:06:47;;;;;;;0.00;0.00;;;21.50;47.60;;;;;;5034704;28;20234;-45
2023/12/05 08:09:18;;;;;;;0.00;0.00;;;21.50;47.60;;;;;;5033977;28;20200;-46
2023/12/05 08:11:49;;;;;;;0.00;0.00;;;21.50;47.60;;;;;;5034119;28;20683;-46
2023/12/05 08:14:20;;;;;;;0.00;0.00;;;21.50;47.60;;;;;;5035101;28;20200;-47
2023/12/05 08:16:52;;;;;;;0.10;0.10;;;21.50;47.60;;;;;;5035029;28;20196;-46
2023/12/05 08:19:23;;;;;;;0.00;0.00;;;21.50;47.60;;;;;;5034689;28;20200;-43
2023/12/05 08:21:53;;;;;;;0.10;0.10;;;21.50;47.60;;;;;;5034630;28;20675;-45
2023/12/05 08:24:24;;;;;;;0.10;0.10;;;21.50;47.60;;;;;;5033783;28;20200;-48
2023/12/05 08:26:55;;;;;;;0.00;0.00;;;21.40;47.60;;;;;;5015550;28;20838;-46
2023/12/05 08:29:26;;;;;;;0.00;0.00;;;21.40;47.60;;;;;;5014150;28;20197;-49
2023/12/05 08:31:58;;;;;;;0.10;0.10;;;21.40;47.50;;;;;;5014391;28;20568;-48
2023/12/05 08:34:29;;;;;;;0.00;0.00;;;21.40;47.50;;;;;;5014637;28;20208;-49
2023/12/05 08:37:00;;;;;;;0.00;0.00;;;21.40;47.50;;;;;;5017999;28;20204;-50
2023/12/05 08:39:31;;;;;;;0.10;0.10;;;21.40;47.50;;;;;;5034192;28;20200;-48
2023/12/05 08:42:01;;;;;;;0.00;0.00;;;21.40;47.50;;;;;;5033990;28;20234;-46
2023/12/05 08:44:32;;;;;;;0.10;0.10;;;21.30;47.50;;;;;;5034063;28;20251;-45
2023/12/05 08:47:05;;;;;;;0.00;0.00;;;21.30;47.50;;;;;;5034115;28;20729;-46
2023/12/05 08:49:36;;;;;;;0.10;0.10;;;21.30;47.50;;;;;;5033223;28;20202;-48
2023/12/05 08:52:07;;;;;;;0.00;0.00;;;21.30;47.50;;;;;;5033378;28;20227;-45
2023/12/05 08:54:37;;;;;;;0.10;0.10;;;21.30;47.60;;;;;;5033672;28;20640;-44
2023/12/05 08:57:08;;;;;;;0.00;0.00;;;21.30;47.50;;;;;;5032933;28;20196;-46
2023/12/05 08:59:40;;;;;;;0.05;0.05;;;21.30;47.50;;;;;;5033291;28;20202;-47
2023/12/05 09:02:13;;;;;;;0.05;0.05;;;21.30;47.50;;;;;;5033124;28;20252;-46
2023/12/05 09:04:43;;;;;;;0.00;0.00;;;21.20;47.40;;;;;;5033965;28;20199;-45
2023/12/05 09:07:14;;;;;;;0.00;0.00;;;21.20;47.50;;;;;;5033913;28;20239;-44
2023/12/05 09:09:45;;;;;;;0.00;0.00;;;21.20;47.50;;;;;;5033249;28;20556;-44
2023/12/05 09:12:15;;;;;;;0.10;0.10;;;21.20;47.50;;;;;;5030207;28;20216;-46
2023/12/05 09:14:46;;;;;;;0.00;0.00;;;21.20;47.60;;;;;;5032417;28;20188;-45
2023/12/05 09:17:19;;;;;;;0.00;0.00;;;21.20;47.50;;;;;;5021342;28;20191;-48
2023/12/05 09:19:50;;;;;;;0.00;0.00;;;21.20;47.50;;;;;;5032757;28;20192;-48
2023/12/05 09:22:21;;;;;;;0.10;0.10;;;21.10;47.50;;;;;;5031738;28;20228;-46
2023/12/05 09:24:52;;;;;;;0.00;0.00;;;21.10;47.50;;;;;;5030569;28;20266;-48
2023/12/05 09:27:23;;;;;;;0.00;0.00;;;21.10;47.50;;;;;;5012726;28;20639;-48
2023/12/05 09:29:53;;;;;;;0.00;0.00;;;21.10;47.50;;;;;;5025170;28;20196;-47
2023/12/05 09:32:26;;;;;;;0.00;0.00;;;21.10;47.50;;;;;;5032740;28;20227;-48
2023/12/05 09:34:57;;;;;;;0.00;0.00;;;21.10;47.50;;;;;;5033092;28;20200;-46
2023/12/05 09:37:28;;;;;;;0.10;0.10;;;21.00;47.50;;;;;;5031312;28;20196;-47
2023/12/05 09:39:59;;;;;;;0.10;0.10;;;21.00;47.50;;;;;;5031718;28;20709;-45
2023/12/05 09:42:30;;;;;;;0.10;0.10;;;21.00;47.50;;;;;;5032170;28;20200;-46
2023/12/05 09:45:02;;;;;;;0.00;0.00;;;21.00;47.50;;;;;;5032207;28;20208;-46
2023/12/05 09:47:36;;;;;;;0.08;0.08;;;20.90;47.40;;;;;;5031493;28;20602;-45
2023/12/05 09:50:08;;;;;;;0.00;0.00;;;20.90;47.40;;;;;;5029934;28;20185;-48
2023/12/05 09:52:39;;;;;;;0.00;0.00;;;20.90;47.40;;;;;;5013102;28;20276;-48
2023/12/05 09:55:10;;;;;;;0.00;0.00;;;20.90;47.40;;;;;;5030033;28;20218;-45
2023/12/05 09:57:42;;;;;;;0.00;0.00;;;20.90;47.40;;;;;;5032184;28;20287;-50
2023/12/05 10:00:13;;;;;;;0.00;0.00;;;20.90;47.40;;;;;;5031688;28;20207;-45
2023/12/05 10:02:49;;;;;;;0.10;0.10;;;20.80;47.30;;;;;;5031327;28;20203;-49
2023/12/05 10:05:23;;;;;;;0.10;0.10;;;20.90;47.30;;;;;;5024916;28;20633;-45
2023/12/05 10:07:55;;;;;;;0.00;0.00;;;20.80;47.30;;;;;;5032243;28;20231;-48
2023/12/05 10:10:28;;;;;;;0.10;0.10;;;20.80;47.30;;;;;;5032888;28;20216;-48
2023/12/05 10:12:59;;;;;;;0.00;0.00;;;20.80;47.30;;;;;;5031929;28;20200;-45
2023/12/05 10:15:29;;;;;;;0.10;0.10;;;20.80;47.40;;;;;;5032295;28;20200;-46
2023/12/05 10:18:02;;;;;;;0.00;0.00;;;20.70;47.30;;;;;;5024275;28;20199;-45
2023/12/05 10:20:33;;;;;;;0.10;0.10;;;20.80;47.40;;;;;;5031238;28;20220;-47
2023/12/05 10:23:05;;;;;;;0.00;0.00;;;20.70;47.40;;;;;;5031646;28;20695;-48
2023/12/05 10:25:35;;;;;;;0.08;0.08;;;20.70;47.30;;;;;;5031733;28;20203;-46
2023/12/05 10:28:07;;;;;;;0.10;0.10;;;20.70;47.30;;;;;;5030172;28;20234;-47
2023/12/05 10:30:39;;;;;;;0.00;0.00;;;20.70;47.30;;;;;;5031537;28;20224;-46
2023/12/05 10:33:18;;;;;;;0.00;0.00;;;20.70;47.30;;;;;;5030556;28;20242;-46
2023/12/05 10:35:49;;;;;;;0.10;0.10;;;20.70;47.30;;;;;;5031765;28;20204;-47
2023/12/05 10:38:20;;;;;;;0.03;0.03;;;20.70;47.30;;;;;;5031714;28;20203;-46
2023/12/05 10:40:59;;;;;;;0.00;0.00;;;20.70;47.30;;;;;;5031664;28;20227;-47
2023/12/05 10:43:30;;;;;;;0.08;0.08;;;20.60;47.30;;;;;;5030760;28;20254;-48
2023/12/05 10:46:03;;;;;;;0.10;0.10;;;20.60;47.30;;;;;;5031240;28;20196;-49
2023/12/05 10:48:36;;;;;;;0.00;0.00;;;20.60;47.30;;;;;;5031305;28;20241;-46
2023/12/05 10:51:08;;;;;;;0.10;0.10;;;20.60;47.30;;;;;;5031004;28;20222;-49
2023/12/05 10:53:39;;;;;;;0.00;0.00;;;20.60;47.30;;;;;;5031088;28;20208;-46
2023/12/05 10:56:15;;;;;;;0.00;0.00;;;20.50;47.30;;;;;;5031034;28;20674;-47
2023/12/05 10:58:46;;;;;;;0.00;0.00;;;20.50;47.30;;;;;;5030710;28;20234;-46
2023/12/05 11:01:17;;;;;;;0.00;0.00;;;20.50;47.30;;;;;;5030867;28;20311;-48
2023/12/05 11:03:51;;;;;;;0.00;0.00;;;20.50;47.30;;;;;;5031484;28;20196;-49
2023/12/05 11:06:22;;;;;;;0.00;0.00;;;20.50;47.30;;;;;;5031200;28;20196;-48
2023/12/05 11:08:53;;;;;;;0.00;0.00;;;20.50;47.40;;;;;;5030985;28;20216;-46
2023/12/05 11:11:26;;;;;;;0.10;0.10;;;20.40;47.40;;;;;;5031242;28;20224;-46
2023/12/05 11:13:57;;;;;;;0.10;0.10;;;20.50;47.40;;;;;;5028499;28;20629;-48
2023/12/05 11:16:31;;;;;;;0.00;0.00;;;20.50;47.40;;;;;;5023551;28;20192;-48
2023/12/05 11:19:11;;;;;;;0.00;0.00;;;20.50;47.40;;;;;;5016705;28;20192;-49
2023/12/05 11:21:53;;;;;;;0.05;0.05;;;20.40;47.40;;;;;;5031571;28;20220;-48
2023/12/05 11:24:43;;;;;;;0.10;0.10;;;20.40;47.30;;;;;;5029826;28;20203;-48
2023/12/05 11:27:34;;;;;;;0.00;0.00;;;20.40;47.30;;;;;;5030430;28;20676;-47
2023/12/05 11:30:24;;;;;;;0.00;0.00;;;20.40;47.30;;;;;;5030849;28;20192;-46
2023/12/05 11:33:06;;;;;;;0.00;0.00;;;20.40;47.30;;;;;;5031454;28;20192;-49
2023/12/05 11:35:50;;;;;;;0.00;0.00;;;20.40;47.30;;;;;;5030963;28;20192;-45
2023/12/05 11:38:23;;;;;;;0.00;0.00;;;20.30;47.30;;;;;;5030772;28;20191;-46
2023/12/05 11:41:17;;;;;;;0.00;0.00;;;20.30;47.30;;;;;;5026646;28;20212;-46
2023/12/05 11:44:21;;;;;;;0.00;0.00;;;20.30;47.40;;;;;;5030751;28;20207;-49
2023/12/05 11:46:51;;;;;;;0.08;0.08;;;20.30;47.40;;;;;;5030104;28;20290;-48
2023/12/05 11:49:39;;;;;;;0.00;0.00;;;20.30;47.40;;;;;;5031399;28;20192;-48
2023/12/05 11:52:15;;;;;;;0.10;0.10;;;20.30;47.40;;;;;;5023441;28;20703;-48
2023/12/05 11:54:48;;;;;;;0.10;0.10;;;20.30;47.40;;;;;;5030199;28;20196;-47
2023/12/05 11:57:19;;;;;;;0.10;0.10;;;20.20;47.40;;;;;;5030140;28;20200;-45
2023/12/05 11:59:51;;;;;;;0.10;0.10;;;20.20;47.40;;;;;;5028535;28;20243;-46
2023/12/05 12:02:26;;;;;;;0.00;0.00;;;20.20;47.50;;;;;;5030464;28;20216;-45
2023/12/05 12:05:03;;;;;;;0.10;0.10;;;20.20;47.50;;;;;;5018924;28;20706;-48
2023/12/05 12:07:44;;;;;;;0.00;0.00;;;20.20;47.40;;;;;;5023641;28;20651;-45
2023/12/05 12:10:17;;;;;;;0.10;0.10;;;20.20;47.40;;;;;;5029975;28;20188;-48
2023/12/05 12:12:48;;;;;;;0.00;0.00;;;20.20;47.40;;;;;;5029979;28;20548;-46
2023/12/05 12:15:19;;;;;;;0.00;0.00;;;20.20;47.40;;;;;;5030382;28;20296;-48
2023/12/05 12:17:50;;;;;;;0.00;0.00;;;20.20;47.40;;;;;;5030064;28;20273;-48
2023/12/05 12:20:22;;;;;;;0.03;0.03;;;20.20;47.40;;;;;;5029371;28;20537;-43
2023/12/05 12:22:55;;;;;;;0.00;0.00;;;20.20;47.40;;;;;;5022604;28;20220;-46
2023/12/05 12:25:26;;;;;;;0.00;0.00;;;20.10;47.40;;;;;;5026506;28;20192;-46
2023/12/05 12:27:57;;;;;;;0.00;0.00;;;20.10;47.40;;;;;;5034120;28;20220;-46
2023/12/05 12:30:36;;;;;;;0.10;0.10;;;20.10;47.40;;;;;;5034105;28;20559;-45
2023/12/05 12:33:09;;;;;;;0.00;0.00;;;20.10;47.40;;;;;;5034201;28;20200;-46
2023/12/05 12:35:40;;;;;;;0.10;0.10;;;20.10;47.40;;;;;;5034323;28;20192;-46
2023/12/05 12:38:13;;;;;;;0.00;0.00;;;20.10;47.40;;;;;;5033678;28;20711;-46
2023/12/05 12:40:43;;;;;;;0.10;0.10;;;20.10;48.10;;;;;;5033493;28;20212;-45
2023/12/05 12:43:16;;;;;;;0.00;0.00;;;20.10;47.40;;;;;;5032621;28;20204;-45
2023/12/05 12:45:47;;;;;;;0.03;0.03;;;20.10;47.50;;;;;;5033811;28;20269;-45
2023/12/05 12:48:18;;;;;;;0.00;0.00;;;20.10;47.40;;;;;;5034281;28;20227;-43
2023/12/05 12:50:49;;;;;;;0.00;0.00;;;20.10;47.40;;;;;;5033440;28;20247;-44
2023/12/05 12:53:21;;;;;;;0.00;0.00;;;20.10;47.40;;;;;;5034336;28;20202;-43
2023/12/05 12:55:52;;;;;;;0.00;0.00;;;20.10;47.50;;;;;;5033805;28;20379;-44
2023/12/05 12:58:26;;;;;;;0.10;0.10;;;20.10;47.40;;;;;;5033232;28;20227;-43
2023/12/05 13:00:57;;;;;;;0.10;0.10;;;20.10;47.40;;;;;;5033423;28;20641;-43
2023/12/05 13:03:28;;;;;;;0.10;0.10;;;20.10;47.40;;;;;;5033137;28;20196;-43
2023/12/05 13:05:59;;;;;;;0.10;0.10;;;20.10;47.50;;;;;;5032232;28;20200;-44
2023/12/05 13:08:31;;;;;;;0.00;0.00;;;20.00;47.50;;;;;;5033509;28;20537;-46
2023/12/05 13:11:02;;;;;;;0.00;0.00;;;20.00;47.40;;;;;;5032928;28;20222;-49
2023/12/05 13:13:33;;;;;;;0.10;0.10;;;20.00;47.40;;;;;;5033079;28;20618;-46